sensor_id;sensor_type;location;lat;lon;timestamp;pressure;altitude;pressure_sealevel;temperature;humidity
67038;BME280;53940;53.204;6.590;2023-12-20T00:01:40;101105.59;;;21.78;42.81
67038;BME280;53940;53.204;6.590;2023-12-20T00:04:40;101102.91;;;21.78;42.63
67038;BME280;53940;53.204;6.590;2023-12-20T00:07:41;101084.16;;;21.78;42.75
67038;BME280;53940;53.204;6.590;2023-12-20T00:10:41;101090.34;;;21.78;42.47
67038;BME280;53940;53.204;6.590;2023-12-20T00:13:41;101098.38;;;21.78;42.60
67038;BME280;53940;53.204;6.590;2023-12-20T00:16:42;101091.19;;;21.79;42.62
67038;BME280;53940;53.204;6.590;2023-12-20T00:19:42;101084.97;;;21.78;42.52
67038;BME280;53940;53.204;6.590;2023-12-20T00:22:42;101085.84;;;21.79;42.75
67038;BME280;53940;53.204;6.590;2023-12-20T00:25:42;101086.66;;;21.79;42.67
67038;BME280;53940;53.204;6.590;2023-12-20T00:28:43;101083.16;;;21.79;42.52
67038;BME280;53940;53.204;6.590;2023-12-20T00:31:43;101085.84;;;21.79;42.42
67038;BME280;53940;53.204;6.590;2023-12-20T00:34:44;101079.59;;;21.78;42.62
67038;BME280;53940;53.204;6.590;2023-12-20T00:37:44;101078.63;;;21.79;42.67
67038;BME280;53940;53.204;6.590;2023-12-20T00:40:45;101078.78;;;21.78;42.55
67038;BME280;53940;53.204;6.590;2023-12-20T00:43:45;101074.25;;;21.78;42.67
67038;BME280;53940;53.204;6.590;2023-12-20T00:46:45;101086.66;;;21.79;42.58
67038;BME280;53940;53.204;6.590;2023-12-20T00:49:46;101085.84;;;21.79;42.65
67038;BME280;53940;53.204;6.590;2023-12-20T00:52:46;101086.66;;;21.79;42.72
67038;BME280;53940;53.204;6.590;2023-12-20T00:55:46;101078.78;;;21.78;42.43
67038;BME280;53940;53.204;6.590;2023-12-20T00:58:47;101062.69;;;21.78;42.61
67038;BME280;53940;53.204;6.590;2023-12-20T01:01:47;101064.38;;;21.79;42.74
67038;BME280;53940;53.204;6.590;2023-12-20T01:04:48;101059.00;;;21.79;42.75
67038;BME280;53940;53.204;6.590;2023-12-20T01:07:48;101057.31;;;21.78;42.56
67038;BME280;53940;53.204;6.590;2023-12-20T01:10:49;101044.91;;;21.77;42.55
67038;BME280;53940;53.204;6.590;2023-12-20T01:13:49;101048.41;;;21.77;42.47
67038;BME280;53940;53.204;6.590;2023-12-20T01:16:50;101045.72;;;21.77;42.75
67038;BME280;53940;53.204;6.590;2023-12-20T01:19:50;101044.91;;;21.77;42.41
67038;BME280;53940;53.204;6.590;2023-12-20T01:22:50;101041.22;;;21.78;42.50
67038;BME280;53940;53.204;6.590;2023-12-20T01:25:51;101027.09;;;21.76;42.67
67038;BME280;53940;53.204;6.590;2023-12-20T01:28:51;101034.16;;;21.77;42.58
67038;BME280;53940;53.204;6.590;2023-12-20T01:31:51;101027.94;;;21.76;42.50
67038;BME280;53940;53.204;6.590;2023-12-20T01:34:52;101028.81;;;21.77;42.35
67038;BME280;53940;53.204;6.590;2023-12-20T01:37:52;101033.31;;;21.76;42.54
67038;BME280;53940;53.204;6.590;2023-12-20T01:40:56;101033.31;;;21.76;42.61
67038;BME280;53940;53.204;6.590;2023-12-20T01:43:57;101027.09;;;21.76;42.49
67038;BME280;53940;53.204;6.590;2023-12-20T01:46:57;101044.03;;;21.76;42.40
67038;BME280;53940;53.204;6.590;2023-12-20T01:49:57;101036.00;;;21.76;42.53
67038;BME280;53940;53.204;6.590;2023-12-20T01:53:00;101022.72;;;21.75;42.48
67038;BME280;53940;53.204;6.590;2023-12-20T01:56:01;101040.50;;;21.76;42.54
67038;BME280;53940;53.204;6.590;2023-12-20T01:59:01;101032.63;;;21.74;42.07
67038;BME280;53940;53.204;6.590;2023-12-20T02:02:03;101034.44;;;21.74;42.28
67038;BME280;53940;53.204;6.590;2023-12-20T02:05:04;101044.31;;;21.73;42.36
67038;BME280;53940;53.204;6.590;2023-12-20T02:08:06;101028.22;;;21.73;42.23
67038;BME280;53940;53.204;6.590;2023-12-20T02:11:06;101022.03;;;21.73;42.03
67038;BME280;53940;53.204;6.590;2023-12-20T02:14:06;101016.66;;;21.73;41.89
67038;BME280;53940;53.204;6.590;2023-12-20T02:17:07;101014.66;;;21.75;41.97
67038;BME280;53940;53.204;6.590;2023-12-20T02:20:07;101003.94;;;21.75;41.85
67038;BME280;53940;53.204;6.590;2023-12-20T02:23:08;101003.94;;;21.75;42.00
67038;BME280;53940;53.204;6.590;2023-12-20T02:26:08;101010.16;;;21.75;42.06
67038;BME280;53940;53.204;6.590;2023-12-20T02:29:09;101007.34;;;21.77;41.91
67038;BME280;53940;53.204;6.590;2023-12-20T02:32:09;100996.44;;;21.78;41.63
67038;BME280;53940;53.204;6.590;2023-12-20T02:35:10;100993.63;;;21.80;41.90
67038;BME280;53940;53.204;6.590;2023-12-20T02:38:10;100986.44;;;21.80;41.62
67038;BME280;53940;53.204;6.590;2023-12-20T02:41:10;100982.75;;;21.81;41.39
67038;BME280;53940;53.204;6.590;2023-12-20T02:44:11;101003.09;;;21.84;41.59
67038;BME280;53940;53.204;6.590;2023-12-20T02:47:11;100996.72;;;21.85;41.48
67038;BME280;53940;53.204;6.590;2023-12-20T02:50:11;100988.69;;;21.85;41.53
67038;BME280;53940;53.204;6.590;2023-12-20T02:53:12;100996.72;;;21.85;41.58
67038;BME280;53940;53.204;6.590;2023-12-20T02:56:12;100979.63;;;21.86;41.54
67038;BME280;53940;53.204;6.590;2023-12-20T02:59:14;100978.78;;;21.86;41.37
67038;BME280;53940;53.204;6.590;2023-12-20T03:02:14;100967.22;;;21.85;41.40
67038;BME280;53940;53.204;6.590;2023-12-20T03:05:15;100964.41;;;21.87;41.42
67038;BME280;53940;53.204;6.590;2023-12-20T03:08:15;100955.50;;;21.86;41.29
67038;BME280;53940;53.204;6.590;2023-12-20T03:11:16;100956.19;;;21.88;41.48
67038;BME280;53940;53.204;6.590;2023-12-20T03:14:16;100952.53;;;21.89;41.24
67038;BME280;53940;53.204;6.590;2023-12-20T03:17:16;100946.19;;;21.90;41.23
67038;BME280;53940;53.204;6.590;2023-12-20T03:20:17;100940.63;;;21.92;41.06
67038;BME280;53940;53.204;6.590;2023-12-20T03:23:17;100946.88;;;21.92;41.29
67038;BME280;53940;53.204;6.590;2023-12-20T03:26:17;100955.59;;;21.94;41.28
67038;BME280;53940;53.204;6.590;2023-12-20T03:29:19;100942.06;;;21.96;41.00
67038;BME280;53940;53.204;6.590;2023-12-20T03:32:19;100949.97;;;21.98;40.99
67038;BME280;53940;53.204;6.590;2023-12-20T03:35:20;100923.13;;;21.98;41.13
67038;BME280;53940;53.204;6.590;2023-12-20T03:38:21;100922.00;;;22.00;41.11
67038;BME280;53940;53.204;6.590;2023-12-20T03:41:21;100939.91;;;22.00;41.10
67038;BME280;53940;53.204;6.590;2023-12-20T03:44:22;100933.56;;;22.01;41.01
67038;BME280;53940;53.204;6.590;2023-12-20T03:47:22;100929.03;;;22.01;40.95
67038;BME280;53940;53.204;6.590;2023-12-20T03:50:22;100928.91;;;22.03;41.10
67038;BME280;53940;53.204;6.590;2023-12-20T03:53:23;100920.84;;;22.03;41.07
67038;BME280;53940;53.204;6.590;2023-12-20T03:56:23;100931.59;;;22.03;40.91
67038;BME280;53940;53.204;6.590;2023-12-20T03:59:23;100916.19;;;22.05;41.05
67038;BME280;53940;53.204;6.590;2023-12-20T04:02:24;100910.81;;;22.05;40.67
67038;BME280;53940;53.204;6.590;2023-12-20T04:05:24;100914.34;;;22.05;41.01
67038;BME280;53940;53.204;6.590;2023-12-20T04:08:24;100911.50;;;22.07;40.90
67038;BME280;53940;53.204;6.590;2023-12-20T04:11:25;100907.84;;;22.08;40.85
67038;BME280;53940;53.204;6.590;2023-12-20T04:14:25;100909.53;;;22.09;40.87
67038;BME280;53940;53.204;6.590;2023-12-20T04:17:25;100898.94;;;22.07;40.60
67038;BME280;53940;53.204;6.590;2023-12-20T04:20:26;100904.16;;;22.09;40.62
67038;BME280;53940;53.204;6.590;2023-12-20T04:23:26;100888.91;;;22.10;40.71
67038;BME280;53940;53.204;6.590;2023-12-20T04:26:26;100891.56;;;22.10;40.59
67038;BME280;53940;53.204;6.590;2023-12-20T04:29:27;100889.75;;;22.10;40.81
67038;BME280;53940;53.204;6.590;2023-12-20T04:32:27;100893.28;;;22.11;40.76
67038;BME280;53940;53.204;6.590;2023-12-20T04:35:28;100889.75;;;22.10;40.63
67038;BME280;53940;53.204;6.590;2023-12-20T04:38:28;100892.28;;;22.12;40.65
67038;BME280;53940;53.204;6.590;2023-12-20T04:41:28;100880.69;;;22.11;40.81
67038;BME280;53940;53.204;6.590;2023-12-20T04:44:29;100887.75;;;22.12;40.75
67038;BME280;53940;53.204;6.590;2023-12-20T04:47:29;100882.38;;;22.12;40.45
67038;BME280;53940;53.204;6.590;2023-12-20T04:50:29;100887.75;;;22.12;40.62
67038;BME280;53940;53.204;6.590;2023-12-20T04:53:29;100887.75;;;22.12;40.73
67038;BME280;53940;53.204;6.590;2023-12-20T04:56:30;100887.75;;;22.12;40.51
67038;BME280;53940;53.204;6.590;2023-12-20T04:59:30;100896.66;;;22.13;40.60
67038;BME280;53940;53.204;6.590;2023-12-20T05:02:31;100880.69;;;22.11;40.80
67038;BME280;53940;53.204;6.590;2023-12-20T05:05:31;100892.28;;;22.12;40.50
67038;BME280;53940;53.204;6.590;2023-12-20T05:08:32;100885.06;;;22.12;40.48
67038;BME280;53940;53.204;6.590;2023-12-20T05:11:32;100889.59;;;22.12;40.53
67038;BME280;53940;53.204;6.590;2023-12-20T05:14:32;100895.97;;;22.11;40.52
67038;BME280;53940;53.204;6.590;2023-12-20T05:17:33;100898.50;;;22.12;40.45
67038;BME280;53940;53.204;6.590;2023-12-20T05:20:33;100896.81;;;22.11;40.61
67038;BME280;53940;53.204;6.590;2023-12-20T05:23:33;100899.50;;;22.11;40.42
67038;BME280;53940;53.204;6.590;2023-12-20T05:26:34;100886.06;;;22.11;40.33
67038;BME280;53940;53.204;6.590;2023-12-20T05:29:34;100881.69;;;22.10;40.55
67038;BME280;53940;53.204;6.590;2023-12-20T05:32:35;100879.88;;;22.11;40.40
67038;BME280;53940;53.204;6.590;2023-12-20T05:35:36;100878.16;;;22.10;40.47
67038;BME280;53940;53.204;6.590;2023-12-20T05:38:36;100881.69;;;22.10;40.38
67038;BME280;53940;53.204;6.590;2023-12-20T05:41:37;100874.66;;;22.09;40.44
67038;BME280;53940;53.204;6.590;2023-12-20T05:44:37;100871.97;;;22.09;40.53
67038;BME280;53940;53.204;6.590;2023-12-20T05:47:37;100848.81;;;22.08;40.54
67038;BME280;53940;53.204;6.590;2023-12-20T05:50:38;100833.53;;;22.08;40.46
67038;BME280;53940;53.204;6.590;2023-12-20T05:53:39;100854.19;;;22.08;40.63
67038;BME280;53940;53.204;6.590;2023-12-20T05:56:39;100856.84;;;22.08;40.63
67038;BME280;53940;53.204;6.590;2023-12-20T05:59:40;100863.19;;;22.07;40.59
67038;BME280;53940;53.204;6.590;2023-12-20T06:02:41;100855.13;;;22.07;40.31
67038;BME280;53940;53.204;6.590;2023-12-20T06:05:41;100863.19;;;22.07;40.43
67038;BME280;53940;53.204;6.590;2023-12-20T06:08:41;100845.41;;;22.06;40.42
67038;BME280;53940;53.204;6.590;2023-12-20T06:11:43;100850.78;;;22.06;40.28
67038;BME280;53940;53.204;6.590;2023-12-20T06:14:43;100841.91;;;22.05;40.50
67038;BME280;53940;53.204;6.590;2023-12-20T06:17:44;100842.03;;;22.04;40.58
67038;BME280;53940;53.204;6.590;2023-12-20T06:20:44;100848.41;;;22.03;40.52
67038;BME280;53940;53.204;6.590;2023-12-20T06:23:44;100847.41;;;22.04;40.40
67038;BME280;53940;53.204;6.590;2023-12-20T06:26:45;100842.03;;;22.04;40.31
67038;BME280;53940;53.204;6.590;2023-12-20T06:29:45;100844.03;;;22.02;40.64
67038;BME280;53940;53.204;6.590;2023-12-20T06:32:46;100842.31;;;22.01;40.61
67038;BME280;53940;53.204;6.590;2023-12-20T06:35:47;100838.66;;;22.02;40.39
67038;BME280;53940;53.204;6.590;2023-12-20T06:38:47;100833.31;;;22.02;40.26
67038;BME280;53940;53.204;6.590;2023-12-20T06:41:47;100826.94;;;22.03;40.59
67038;BME280;53940;53.204;6.590;2023-12-20T06:44:48;100818.03;;;22.02;40.54
67038;BME280;53940;53.204;6.590;2023-12-20T06:47:48;100811.84;;;22.02;40.64
67038;BME280;53940;53.204;6.590;2023-12-20T06:50:48;100813.53;;;22.03;40.70
67038;BME280;53940;53.204;6.590;2023-12-20T06:53:49;100805.47;;;22.03;40.77
67038;BME280;53940;53.204;6.590;2023-12-20T06:56:49;100808.16;;;22.03;40.51
67038;BME280;53940;53.204;6.590;2023-12-20T06:59:49;100802.78;;;22.03;40.80
67038;BME280;53940;53.204;6.590;2023-12-20T07:02:50;100801.94;;;22.02;40.89
67038;BME280;53940;53.204;6.590;2023-12-20T07:05:50;100798.41;;;22.02;40.87
67038;BME280;53940;53.204;6.590;2023-12-20T07:08:51;100799.25;;;22.02;40.54
67038;BME280;53940;53.204;6.590;2023-12-20T07:11:52;100796.56;;;22.02;40.81
67038;BME280;53940;53.204;6.590;2023-12-20T07:14:53;100793.06;;;22.02;40.76
67038;BME280;53940;53.204;6.590;2023-12-20T07:17:53;100783.28;;;22.01;40.72
67038;BME280;53940;53.204;6.590;2023-12-20T07:20:53;100788.66;;;22.01;40.82
67038;BME280;53940;53.204;6.590;2023-12-20T07:23:55;100787.81;;;22.00;41.03
67038;BME280;53940;53.204;6.590;2023-12-20T07:26:55;100789.66;;;22.00;40.79
67038;BME280;53940;53.204;6.590;2023-12-20T07:29:56;100789.66;;;22.00;40.94
67038;BME280;53940;53.204;6.590;2023-12-20T07:32:56;100776.22;;;22.00;40.83
67038;BME280;53940;53.204;6.590;2023-12-20T07:35:57;100790.66;;;21.99;40.96
67038;BME280;53940;53.204;6.590;2023-12-20T07:38:57;100784.47;;;21.98;40.89
67038;BME280;53940;53.204;6.590;2023-12-20T07:41:57;100789.81;;;21.98;41.01
67038;BME280;53940;53.204;6.590;2023-12-20T07:44:58;100782.59;;;21.99;40.89
67038;BME280;53940;53.204;6.590;2023-12-20T07:47:59;100799.56;;;21.99;41.07
67038;BME280;53940;53.204;6.590;2023-12-20T07:50:59;100797.88;;;21.98;41.00
67038;BME280;53940;53.204;6.590;2023-12-20T07:53:59;100789.81;;;21.98;41.02
67038;BME280;53940;53.204;6.590;2023-12-20T07:57:00;100788.66;;;22.01;41.18
67038;BME280;53940;53.204;6.590;2023-12-20T08:00:00;100788.66;;;22.01;41.22
67038;BME280;53940;53.204;6.590;2023-12-20T08:03:00;100790.38;;;22.02;40.88
67038;BME280;53940;53.204;6.590;2023-12-20T08:06:03;100801.94;;;22.02;41.31
67038;BME280;53940;53.204;6.590;2023-12-20T08:09:04;100811.66;;;22.03;41.31
67038;BME280;53940;53.204;6.590;2023-12-20T08:12:05;100799.97;;;22.04;41.33
67038;BME280;53940;53.204;6.590;2023-12-20T08:15:05;100803.47;;;22.05;41.19
67038;BME280;53940;53.204;6.590;2023-12-20T08:18:06;100809.53;;;22.07;41.31
67038;BME280;53940;53.204;6.590;2023-12-20T08:21:06;100803.31;;;22.06;41.31
67038;BME280;53940;53.204;6.590;2023-12-20T08:24:09;100807.56;;;22.09;41.02
67038;BME280;53940;53.204;6.590;2023-12-20T08:27:10;100810.25;;;22.09;41.17
67038;BME280;53940;53.204;6.590;2023-12-20T08:30:10;100804.00;;;22.08;41.06
67038;BME280;53940;53.204;6.590;2023-12-20T08:33:11;100788.91;;;22.07;41.17
67038;BME280;53940;53.204;6.590;2023-12-20T08:36:13;100787.75;;;22.10;40.95
67038;BME280;53940;53.204;6.590;2023-12-20T08:39:13;100792.28;;;22.10;41.06
67038;BME280;53940;53.204;6.590;2023-12-20T08:42:14;100833.38;;;22.10;41.24
67038;BME280;53940;53.204;6.590;2023-12-20T08:45:14;100864.59;;;22.11;41.18
67038;BME280;53940;53.204;6.590;2023-12-20T08:48:14;100863.59;;;22.12;41.28
67038;BME280;53940;53.204;6.590;2023-12-20T08:51:15;100877.88;;;22.13;41.15
67038;BME280;53940;53.204;6.590;2023-12-20T08:54:15;100865.44;;;22.12;41.35
67038;BME280;53940;53.204;6.590;2023-12-20T08:57:20;100880.56;;;22.13;41.13
67038;BME280;53940;53.204;6.590;2023-12-20T09:00:24;100880.69;;;22.11;41.00
67038;BME280;53940;53.204;6.590;2023-12-20T09:03:27;100877.34;;;22.09;41.03
67038;BME280;53940;53.204;6.590;2023-12-20T09:06:27;100898.22;;;22.15;41.07
67038;BME280;53940;53.204;6.590;2023-12-20T09:09:28;100901.59;;;22.17;41.07
67038;BME280;53940;53.204;6.590;2023-12-20T09:12:28;100904.94;;;22.19;41.05
67038;BME280;53940;53.204;6.590;2023-12-20T09:15:29;100910.31;;;22.19;40.88
67038;BME280;53940;53.204;6.590;2023-12-20T09:18:30;100914.00;;;22.18;41.06
67038;BME280;53940;53.204;6.590;2023-12-20T09:21:30;100905.94;;;22.18;41.19
67038;BME280;53940;53.204;6.590;2023-12-20T09:24:31;100904.13;;;22.19;41.17
67038;BME280;53940;53.204;6.590;2023-12-20T09:27:31;100895.38;;;22.17;40.92
67038;BME280;53940;53.204;6.590;2023-12-20T09:30:32;100895.81;;;22.12;41.00
67038;BME280;53940;53.204;6.590;2023-12-20T09:33:33;100894.44;;;22.08;40.97
67038;BME280;53940;53.204;6.590;2023-12-20T09:36:33;100903.44;;;22.07;41.38
67038;BME280;53940;53.204;6.590;2023-12-20T09:39:36;100901.06;;;22.04;40.94
67038;BME280;53940;53.204;6.590;2023-12-20T09:43:00;100916.50;;;22.02;40.89
67038;BME280;53940;53.204;6.590;2023-12-20T09:46:05;100924.81;;;21.99;41.21
67038;BME280;53940;53.204;6.590;2023-12-20T09:49:06;100923.13;;;21.98;41.03
67038;BME280;53940;53.204;6.590;2023-12-20T09:52:07;100934.84;;;21.97;41.25
67038;BME280;53940;53.204;6.590;2023-12-20T09:55:09;100902.13;;;21.93;40.97
67038;BME280;53940;53.204;6.590;2023-12-20T09:58:10;100906.63;;;21.92;41.09
67038;BME280;53940;53.204;6.590;2023-12-20T10:01:10;100909.31;;;21.92;41.28
67038;BME280;53940;53.204;6.590;2023-12-20T10:04:12;100905.94;;;21.90;41.27
67038;BME280;53940;53.204;6.590;2023-12-20T10:07:13;100910.44;;;21.90;41.03
67038;BME280;53940;53.204;6.590;2023-12-20T10:10:14;100933.75;;;21.89;41.13
67038;BME280;53940;53.204;6.590;2023-12-20T10:13:15;100938.41;;;21.87;41.13
67038;BME280;53940;53.204;6.590;2023-12-20T10:16:15;100936.72;;;21.86;41.01
67038;BME280;53940;53.204;6.590;2023-12-20T10:19:17;100936.72;;;21.86;41.11
67038;BME280;53940;53.204;6.590;2023-12-20T10:22:18;100926.84;;;21.87;41.18
67038;BME280;53940;53.204;6.590;2023-12-20T10:25:18;100909.88;;;21.86;40.96
67038;BME280;53940;53.204;6.590;2023-12-20T10:28:19;100907.34;;;21.85;41.22
67038;BME280;53940;53.204;6.590;2023-12-20T10:31:32;100905.50;;;21.85;40.95
67038;BME280;53940;53.204;6.590;2023-12-20T10:34:32;100902.84;;;21.85;41.12
67038;BME280;53940;53.204;6.590;2023-12-20T10:37:37;100894.78;;;21.85;40.84
67038;BME280;53940;53.204;6.590;2023-12-20T10:40:38;100888.41;;;21.86;40.90
67038;BME280;53940;53.204;6.590;2023-12-20T10:43:38;100891.09;;;21.86;41.04
67038;BME280;53940;53.204;6.590;2023-12-20T10:46:40;100885.75;;;21.86;40.91
67038;BME280;53940;53.204;6.590;2023-12-20T10:49:41;100892.94;;;21.86;41.05
67038;BME280;53940;53.204;6.590;2023-12-20T10:52:42;100888.41;;;21.86;40.75
67038;BME280;53940;53.204;6.590;2023-12-20T10:55:44;100888.41;;;21.86;40.79
67038;BME280;53940;53.204;6.590;2023-12-20T10:58:46;100893.50;;;21.89;41.02
67038;BME280;53940;53.204;6.590;2023-12-20T11:01:48;100890.09;;;21.87;40.96
67038;BME280;53940;53.204;6.590;2023-12-20T11:04:51;100888.41;;;21.86;40.90
67038;BME280;53940;53.204;6.590;2023-12-20T11:08:04;100895.47;;;21.87;40.66
67038;BME280;53940;53.204;6.590;2023-12-20T11:11:19;100896.47;;;21.86;40.63
67038;BME280;53940;53.204;6.590;2023-12-20T11:14:31;100884.88;;;21.86;40.91
67038;BME280;53940;53.204;6.590;2023-12-20T11:17:35;100879.50;;;21.86;41.00
67038;BME280;53940;53.204;6.590;2023-12-20T11:20:40;100879.69;;;21.84;40.98
67038;BME280;53940;53.204;6.590;2023-12-20T11:23:42;100876.00;;;21.85;40.75
67038;BME280;53940;53.204;6.590;2023-12-20T11:26:46;100868.97;;;21.84;40.70
67038;BME280;53940;53.204;6.590;2023-12-20T11:29:58;100867.28;;;21.83;40.90
67038;BME280;53940;53.204;6.590;2023-12-20T11:32:59;100866.41;;;21.83;41.04
67038;BME280;53940;53.204;6.590;2023-12-20T11:35:59;100875.31;;;21.83;40.85
67038;BME280;53940;53.204;6.590;2023-12-20T11:39:00;100869.09;;;21.83;40.58
67038;BME280;53940;53.204;6.590;2023-12-20T11:42:06;100868.22;;;21.82;40.56
67038;BME280;53940;53.204;6.590;2023-12-20T11:45:13;100861.19;;;21.81;40.88
67038;BME280;53940;53.204;6.590;2023-12-20T11:48:15;100861.19;;;21.81;40.71
67038;BME280;53940;53.204;6.590;2023-12-20T11:51:16;100856.69;;;21.81;40.83
67038;BME280;53940;53.204;6.590;2023-12-20T11:54:16;100858.50;;;21.81;40.62
67038;BME280;53940;53.204;6.590;2023-12-20T11:57:16;100858.50;;;21.81;40.78
67038;BME280;53940;53.204;6.590;2023-12-20T12:00:17;100856.81;;;21.80;40.76
67038;BME280;53940;53.204;6.590;2023-12-20T12:03:18;100846.09;;;21.80;40.84
67038;BME280;53940;53.204;6.590;2023-12-20T12:06:18;100840.72;;;21.80;40.85
67038;BME280;53940;53.204;6.590;2023-12-20T12:09:19;100833.66;;;21.79;40.78
67038;BME280;53940;53.204;6.590;2023-12-20T12:12:19;100814.91;;;21.79;40.86
67038;BME280;53940;53.204;6.590;2023-12-20T12:15:19;100822.94;;;21.79;40.86
67038;BME280;53940;53.204;6.590;2023-12-20T12:18:21;100821.25;;;21.78;40.84
67038;BME280;53940;53.204;6.590;2023-12-20T12:21:21;100821.25;;;21.78;40.61
67038;BME280;53940;53.204;6.590;2023-12-20T12:24:22;100824.94;;;21.77;40.93
67038;BME280;53940;53.204;6.590;2023-12-20T12:27:22;100816.88;;;21.77;40.84
67038;BME280;53940;53.204;6.590;2023-12-20T12:30:22;100815.19;;;21.76;40.73
67038;BME280;53940;53.204;6.590;2023-12-20T12:33:24;100822.41;;;21.75;41.01
67038;BME280;53940;53.204;6.590;2023-12-20T12:36:25;100822.41;;;21.75;40.86
67038;BME280;53940;53.204;6.590;2023-12-20T12:39:26;100809.97;;;21.74;40.88
67038;BME280;53940;53.204;6.590;2023-12-20T12:42:26;100818.84;;;21.75;40.71
67038;BME280;53940;53.204;6.590;2023-12-20T12:45:29;100817.16;;;21.74;40.93
67038;BME280;53940;53.204;6.590;2023-12-20T12:48:29;100822.53;;;21.74;40.96
67038;BME280;53940;53.204;6.590;2023-12-20T12:51:30;100809.13;;;21.74;40.80
67038;BME280;53940;53.204;6.590;2023-12-20T12:54:30;100805.16;;;21.78;41.16
67038;BME280;53940;53.204;6.590;2023-12-20T12:57:30;100810.22;;;21.81;41.20
67038;BME280;53940;53.204;6.590;2023-12-20T13:00:31;100813.63;;;21.83;41.05
67038;BME280;53940;53.204;6.590;2023-12-20T13:03:31;100803.44;;;21.87;41.24
67038;BME280;53940;53.204;6.590;2023-12-20T13:06:32;100804.66;;;21.92;41.44
67038;BME280;53940;53.204;6.590;2023-12-20T13:09:32;100793.78;;;21.94;41.57
67038;BME280;53940;53.204;6.590;2023-12-20T13:12:33;100797.16;;;21.96;41.80
67038;BME280;53940;53.204;6.590;2023-12-20T13:15:33;100802.38;;;21.98;41.75
67038;BME280;53940;53.204;6.590;2023-12-20T13:18:33;100797.69;;;22.00;41.70
67038;BME280;53940;53.204;6.590;2023-12-20T13:21:34;100793.06;;;22.02;41.76
67038;BME280;53940;53.204;6.590;2023-12-20T13:24:34;100787.50;;;22.03;41.88
67038;BME280;53940;53.204;6.590;2023-12-20T13:27:35;100789.22;;;22.04;41.82
67038;BME280;53940;53.204;6.590;2023-12-20T13:30:35;100783.28;;;22.01;41.87
67038;BME280;53940;53.204;6.590;2023-12-20T13:33:35;100773.72;;;21.98;41.84
67038;BME280;53940;53.204;6.590;2023-12-20T13:36:36;100780.22;;;21.96;41.72
67038;BME280;53940;53.204;6.590;2023-12-20T13:39:36;100778.53;;;21.94;41.75
67038;BME280;53940;53.204;6.590;2023-12-20T13:42:38;100769.78;;;21.92;41.99
67038;BME280;53940;53.204;6.590;2023-12-20T13:45:39;100761.06;;;21.90;41.97
67038;BME280;53940;53.204;6.590;2023-12-20T13:48:39;100764.72;;;21.89;41.59
67038;BME280;53940;53.204;6.590;2023-12-20T13:51:40;100766.69;;;21.87;41.94
67038;BME280;53940;53.204;6.590;2023-12-20T13:54:40;100766.84;;;21.86;41.60
67038;BME280;53940;53.204;6.590;2023-12-20T13:57:40;100767.84;;;21.85;41.62
67038;BME280;53940;53.204;6.590;2023-12-20T14:00:41;100767.00;;;21.84;41.68
67038;BME280;53940;53.204;6.590;2023-12-20T14:03:42;100759.97;;;21.83;41.81
67038;BME280;53940;53.204;6.590;2023-12-20T14:06:42;100768.97;;;21.82;41.60
67038;BME280;53940;53.204;6.590;2023-12-20T14:09:42;100760.25;;;21.80;41.78
67038;BME280;53940;53.204;6.590;2023-12-20T14:12:45;100758.56;;;21.79;41.64
67038;BME280;53940;53.204;6.590;2023-12-20T14:15:46;100750.53;;;21.79;41.69
67038;BME280;53940;53.204;6.590;2023-12-20T14:18:47;100752.50;;;21.77;41.59
67038;BME280;53940;53.204;6.590;2023-12-20T14:21:47;100748.97;;;21.76;41.85
67038;BME280;53940;53.204;6.590;2023-12-20T14:24:47;100757.16;;;21.75;41.63
67038;BME280;53940;53.204;6.590;2023-12-20T14:27:47;100742.94;;;21.74;41.64
67038;BME280;53940;53.204;6.590;2023-12-20T14:30:48;100759.97;;;21.73;41.91
67038;BME280;53940;53.204;6.590;2023-12-20T14:33:49;100767.22;;;21.73;41.67
67038;BME280;53940;53.204;6.590;2023-12-20T14:36:50;100764.66;;;21.71;41.64
67038;BME280;53940;53.204;6.590;2023-12-20T14:39:52;100771.03;;;21.70;41.88
67038;BME280;53940;53.204;6.590;2023-12-20T14:42:53;100768.44;;;21.68;41.78
67038;BME280;53940;53.204;6.590;2023-12-20T14:45:53;100772.00;;;21.69;41.84
67038;BME280;53940;53.204;6.590;2023-12-20T14:48:53;100769.44;;;21.67;41.60
67038;BME280;53940;53.204;6.590;2023-12-20T14:51:54;100758.72;;;21.67;41.52
67038;BME280;53940;53.204;6.590;2023-12-20T14:54:54;100748.13;;;21.66;41.78
67038;BME280;53940;53.204;6.590;2023-12-20T14:57:54;100745.63;;;21.64;41.52
67038;BME280;53940;53.204;6.590;2023-12-20T15:00:55;100754.50;;;21.65;41.42
67038;BME280;53940;53.204;6.590;2023-12-20T15:03:56;100748.31;;;21.64;41.76
67038;BME280;53940;53.204;6.590;2023-12-20T15:06:57;100749.13;;;21.65;41.55
67038;BME280;53940;53.204;6.590;2023-12-20T15:09:57;100744.78;;;21.64;41.55
67038;BME280;53940;53.204;6.590;2023-12-20T15:12:57;100735.72;;;21.65;41.68
67038;BME280;53940;53.204;6.590;2023-12-20T15:15:58;100726.84;;;21.64;41.63
67038;BME280;53940;53.204;6.590;2023-12-20T15:18:58;100721.50;;;21.64;41.45
67038;BME280;53940;53.204;6.590;2023-12-20T15:21:59;100730.38;;;21.65;41.69
67038;BME280;53940;53.204;6.590;2023-12-20T15:25:00;100721.50;;;21.64;41.50
67038;BME280;53940;53.204;6.590;2023-12-20T15:28:01;100731.22;;;21.65;41.55
67038;BME280;53940;53.204;6.590;2023-12-20T15:31:04;100723.84;;;21.67;41.66
67038;BME280;53940;53.204;6.590;2023-12-20T15:34:04;100726.41;;;21.69;41.38
67038;BME280;53940;53.204;6.590;2023-12-20T15:37:05;100718.25;;;21.71;41.55
67038;BME280;53940;53.204;6.590;2023-12-20T15:40:08;100717.06;;;21.73;41.26
67038;BME280;53940;53.204;6.590;2023-12-20T15:43:12;100721.28;;;21.76;41.42
67038;BME280;53940;53.204;6.590;2023-12-20T15:46:13;100711.28;;;21.78;41.29